Terminal Aerodrome Forecast
Issued by NWS Austin/San Antonio, TX

Home | Current Version | Previous Version | Text Only | Print | Product List | Glossary On
Versions: 1 2 3 4 5 6 7 8 9 10 11 12 13 14 15 16 17 18 19 20 21 22
000
FTUS44 KEWX 062320
TAFDRT
TAF
KDRT 062320Z 0700/0724 12013G23KT P6SM VCTS BKN035CB OVC150
     FM070200 11011KT P6SM BKN015
     FM070900 12012KT 5SM BR OVC007
     FM071700 13012KT P6SM OVC020
     FM072200 13013KT P6SM BKN035=

USA.gov is the U.S. government's official web portal to all federal, state and local government web resources and services.